createdAt,value
2022-09-29T00:02:19.542Z,12.27
2022-09-29T00:04:46.108Z,11.90
2022-09-29T00:07:12.678Z,12.27
2022-09-29T00:09:39.261Z,12.43
2022-09-29T00:12:05.876Z,12.90
2022-09-29T00:14:32.593Z,12.90
2022-09-29T00:16:59.177Z,12.83
2022-09-29T00:19:27.229Z,12.90
2022-09-29T00:21:53.841Z,12.20
2022-09-29T00:24:20.541Z,13.67
2022-09-29T00:26:47.541Z,13.47
2022-09-29T00:29:14.364Z,13.00
2022-09-29T00:31:41.244Z,13.50
2022-09-29T00:34:08.050Z,12.13
2022-09-29T00:36:34.686Z,12.37
2022-09-29T00:39:01.323Z,12.50
2022-09-29T00:41:31.409Z,13.40
2022-09-29T00:44:13.163Z,13.67
2022-09-29T00:46:39.751Z,11.20
2022-09-29T00:49:26.534Z,13.13
2022-09-29T00:52:08.442Z,12.30
2022-09-29T00:54:40.486Z,12.30
2022-09-29T00:57:09.772Z,11.70
2022-09-29T00:59:46.180Z,11.80
2022-09-29T01:02:15.417Z,11.13
2022-09-29T01:04:42.377Z,11.33
2022-09-29T01:07:10.049Z,10.10
2022-09-29T01:09:40.293Z,10.73
2022-09-29T01:12:08.155Z,12.40
2022-09-29T01:14:37.199Z,12.50
2022-09-29T01:17:05.017Z,12.77
2022-09-29T01:20:04.070Z,11.73
2022-09-29T01:22:46.295Z,11.97
2022-09-29T01:25:50.230Z,12.60
2022-09-29T01:28:22.616Z,11.90
2022-09-29T01:31:12.108Z,12.00
2022-09-29T01:33:50.248Z,12.30
2022-09-29T01:36:16.828Z,12.23
2022-09-29T01:39:03.646Z,12.67
2022-09-29T01:41:36.409Z,11.30
2022-09-29T01:44:31.960Z,11.23
2022-09-29T01:47:16.314Z,11.07
2022-09-29T01:49:52.505Z,11.87
2022-09-29T01:52:26.582Z,12.03
2022-09-29T01:55:02.291Z,12.50
2022-09-29T01:57:37.242Z,11.77
2022-09-29T02:00:13.191Z,11.43
2022-09-29T02:02:48.175Z,11.87
2022-09-29T02:05:30.428Z,13.80
2022-09-29T02:08:02.277Z,12.70
2022-09-29T02:10:39.679Z,13.83
2022-09-29T02:13:09.402Z,12.70
2022-09-29T02:15:39.380Z,13.97
2022-09-29T02:18:19.854Z,11.97
2022-09-29T02:20:47.848Z,13.07
2022-09-29T02:23:14.703Z,12.23
2022-09-29T02:25:41.702Z,13.20
2022-09-29T02:28:09.048Z,13.77
2022-09-29T02:30:36.179Z,13.27
2022-09-29T02:33:02.915Z,14.10
2022-09-29T02:35:45.767Z,13.77
2022-09-29T02:38:44.890Z,13.40
2022-09-29T02:41:20.274Z,13.57
2022-09-29T02:44:11.651Z,14.20
2022-09-29T02:46:46.879Z,12.90
2022-09-29T02:49:44.018Z,13.60
2022-09-29T02:52:20.321Z,13.63
2022-09-29T02:55:08.103Z,10.87
2022-09-29T02:57:50.380Z,11.60
2022-09-29T03:00:18.334Z,11.17
2022-09-29T03:02:45.408Z,11.40
2022-09-29T03:05:18.267Z,11.07
2022-09-29T03:07:45.139Z,11.53
2022-09-29T03:10:14.065Z,12.17
2022-09-29T03:12:40.856Z,11.23
2022-09-29T03:15:08.580Z,11.17
2022-09-29T03:17:35.342Z,10.67
2022-09-29T03:20:02.272Z,9.67
2022-09-29T03:22:28.896Z,10.40
2022-09-29T03:24:55.572Z,11.33
2022-09-29T03:27:22.194Z,12.33
2022-09-29T03:29:50.331Z,12.87
2022-09-29T03:32:17.748Z,13.03
2022-09-29T03:34:44.352Z,14.10
2022-09-29T03:37:10.997Z,13.10
2022-09-29T03:39:37.677Z,12.30
2022-09-29T03:42:04.501Z,12.40
2022-09-29T03:44:31.099Z,14.07
2022-09-29T03:46:57.719Z,14.30
2022-09-29T03:49:24.291Z,14.33
2022-09-29T03:51:52.532Z,14.80
2022-09-29T03:54:19.316Z,15.33
2022-09-29T03:56:46.084Z,14.63
2022-09-29T03:59:14.946Z,15.43
2022-09-29T04:01:41.701Z,17.73
2022-09-29T04:04:09.394Z,15.40
2022-09-29T04:06:36.352Z,15.93
2022-09-29T04:09:03.270Z,14.83
2022-09-29T04:11:29.981Z,15.53
2022-09-29T04:13:56.561Z,13.27
2022-09-29T04:16:23.270Z,14.47
2022-09-29T04:18:49.886Z,13.47
2022-09-29T04:21:17.095Z,13.37
2022-09-29T04:23:43.780Z,13.93
2022-09-29T04:26:10.730Z,13.37
2022-09-29T04:28:38.162Z,14.53
2022-09-29T04:31:05.772Z,14.27
2022-09-29T04:33:32.505Z,14.30
2022-09-29T04:35:59.284Z,13.67
2022-09-29T04:38:26.391Z,14.37
2022-09-29T04:40:53.139Z,14.07
2022-09-29T04:43:20.083Z,15.53
2022-09-29T04:45:46.760Z,14.70
2022-09-29T04:48:13.481Z,15.00
2022-09-29T04:50:40.066Z,13.17
2022-09-29T04:53:07.592Z,12.90
2022-09-29T04:55:34.187Z,13.23
2022-09-29T04:58:01.329Z,12.87
2022-09-29T05:00:27.927Z,12.67
2022-09-29T05:02:54.547Z,12.43
2022-09-29T05:05:21.148Z,12.97
2022-09-29T05:07:48.428Z,13.30
2022-09-29T05:10:15.186Z,12.63
2022-09-29T05:12:46.980Z,11.70
2022-09-29T05:15:13.620Z,14.17
2022-09-29T05:17:40.236Z,12.67
2022-09-29T05:20:07.028Z,13.53
2022-09-29T05:22:33.613Z,14.90
2022-09-29T05:25:00.493Z,13.90
2022-09-29T05:27:27.119Z,14.00
2022-09-29T05:29:53.816Z,12.17
2022-09-29T05:32:20.416Z,13.10
2022-09-29T05:34:47.007Z,14.50
2022-09-29T05:37:13.635Z,13.30
2022-09-29T05:39:40.284Z,12.20
2022-09-29T05:42:11.342Z,13.70
2022-09-29T05:44:38.015Z,12.90
2022-09-29T05:47:04.803Z,12.53
2022-09-29T05:49:32.748Z,12.77
2022-09-29T05:52:00.214Z,13.03
2022-09-29T05:54:27.448Z,12.10
2022-09-29T05:56:54.492Z,12.80
2022-09-29T05:59:21.233Z,12.87
2022-09-29T06:01:48.008Z,12.23
2022-09-29T06:04:14.820Z,12.10
2022-09-29T06:06:41.465Z,12.67
2022-09-29T06:09:08.189Z,11.37
2022-09-29T06:11:34.807Z,12.03
2022-09-29T06:14:02.658Z,13.83
2022-09-29T06:16:31.151Z,13.57
2022-09-29T06:18:59.672Z,11.97
2022-09-29T06:21:28.501Z,13.87
2022-09-29T06:23:56.794Z,12.80
2022-09-29T06:26:24.823Z,13.20
2022-09-29T06:28:53.397Z,13.03
2022-09-29T06:31:22.274Z,13.37
2022-09-29T06:33:49.186Z,12.60
2022-09-29T06:36:43.884Z,14.13
2022-09-29T06:39:12.840Z,12.93
2022-09-29T06:41:39.905Z,13.47
2022-09-29T06:44:08.901Z,12.40
2022-09-29T06:46:35.683Z,12.90
2022-09-29T06:49:02.286Z,14.80
2022-09-29T06:51:42.751Z,13.47
2022-09-29T06:54:13.510Z,12.30
2022-09-29T06:56:40.933Z,15.07
2022-09-29T06:59:07.972Z,15.00
2022-09-29T07:01:35.078Z,12.70
2022-09-29T07:04:02.277Z,13.83
2022-09-29T07:06:29.666Z,12.23
2022-09-29T07:08:58.192Z,13.40
2022-09-29T07:11:26.172Z,13.10
2022-09-29T07:13:54.756Z,12.43
2022-09-29T07:16:23.808Z,12.70
2022-09-29T07:18:51.460Z,14.47
2022-09-29T07:21:18.932Z,13.07
2022-09-29T07:23:46.817Z,4.20
2022-09-29T07:26:14.947Z,11.40
2022-09-29T07:28:41.613Z,11.80
2022-09-29T07:31:14.826Z,11.37
2022-09-29T07:33:45.858Z,10.00
2022-09-29T07:36:13.937Z,11.73
2022-09-29T07:38:41.051Z,10.57
2022-09-29T07:41:10.417Z,11.37
2022-09-29T07:43:37.416Z,12.23
2022-09-29T07:46:04.679Z,11.37
2022-09-29T07:48:32.506Z,10.17
2022-09-29T07:51:08.450Z,11.60
2022-09-29T07:53:36.925Z,10.83
2022-09-29T07:56:15.707Z,11.00
2022-09-29T07:58:42.472Z,9.50
2022-09-29T08:01:12.619Z,10.90
2022-09-29T08:03:44.916Z,10.20
2022-09-29T08:06:11.564Z,9.20
2022-09-29T08:08:39.434Z,9.40
2022-09-29T08:11:09.514Z,8.40
2022-09-29T08:13:37.606Z,7.80
2022-09-29T08:16:07.751Z,7.87
2022-09-29T08:18:35.375Z,7.13
2022-09-29T08:21:04.004Z,6.83
2022-09-29T08:23:34.640Z,6.50
2022-09-29T08:26:03.145Z,6.80
2022-09-29T08:28:32.610Z,6.20
2022-09-29T08:31:04.860Z,7.13
2022-09-29T08:33:32.539Z,6.20
2022-09-29T08:35:59.939Z,5.47
2022-09-29T08:38:27.423Z,5.37
2022-09-29T08:40:57.694Z,6.40
2022-09-29T08:43:40.381Z,6.60
2022-09-29T08:46:35.962Z,6.17
2022-09-29T08:49:29.306Z,5.07
2022-09-29T08:52:15.727Z,7.00
2022-09-29T08:54:48.930Z,5.20
2022-09-29T08:57:21.176Z,5.60
2022-09-29T08:59:55.626Z,5.13
2022-09-29T09:02:55.853Z,5.50
2022-09-29T09:05:45.580Z,5.77
2022-09-29T09:08:18.271Z,5.47
2022-09-29T09:10:49.825Z,5.40
2022-09-29T09:13:26.271Z,5.07
2022-09-29T09:15:55.955Z,4.97
2022-09-29T09:18:44.515Z,4.63
2022-09-29T09:21:19.139Z,5.17
2022-09-29T09:23:58.415Z,4.83
2022-09-29T09:26:39.555Z,4.67
2022-09-29T09:29:24.586Z,4.70
2022-09-29T09:32:01.821Z,5.20
2022-09-29T09:34:47.320Z,4.60
2022-09-29T09:37:17.507Z,4.57
2022-09-29T09:40:11.611Z,4.50
2022-09-29T09:42:42.069Z,4.33
2022-09-29T09:45:22.051Z,5.20
2022-09-29T09:47:58.513Z,5.20
2022-09-29T09:50:25.969Z,4.90
2022-09-29T09:52:59.350Z,5.07
2022-09-29T09:55:27.628Z,5.87
2022-09-29T09:58:12.990Z,5.00
2022-09-29T10:00:44.704Z,5.80
2022-09-29T10:03:12.256Z,4.83
2022-09-29T10:05:45.328Z,4.37
2022-09-29T10:08:21.648Z,5.73
2022-09-29T10:10:57.934Z,5.53
2022-09-29T10:13:27.985Z,5.40
2022-09-29T10:16:13.228Z,4.57
2022-09-29T10:18:46.228Z,5.33
2022-09-29T10:21:27.140Z,6.10
2022-09-29T10:23:54.961Z,5.90
2022-09-29T10:26:25.858Z,3.80
2022-09-29T10:28:58.858Z,4.37
2022-09-29T10:31:32.474Z,5.57
2022-09-29T10:34:03.024Z,6.10
2022-09-29T10:36:48.537Z,6.10
2022-09-29T10:39:43.094Z,5.50
2022-09-29T10:42:16.350Z,5.73
2022-09-29T10:44:44.104Z,6.33
2022-09-29T10:47:15.333Z,6.30
2022-09-29T10:49:42.232Z,5.03
2022-09-29T10:52:23.390Z,5.37
2022-09-29T10:54:58.492Z,5.30
2022-09-29T10:57:28.584Z,4.40
2022-09-29T10:59:57.179Z,5.60
2022-09-29T11:02:30.351Z,4.63
2022-09-29T11:05:01.137Z,2.17
2022-09-29T11:07:28.679Z,4.80
2022-09-29T11:09:55.563Z,4.07
2022-09-29T11:12:38.708Z,3.93
2022-09-29T11:15:41.082Z,3.40
2022-09-29T11:18:19.227Z,4.10
2022-09-29T11:20:49.695Z,3.50
2022-09-29T11:23:44.501Z,3.00
2022-09-29T11:26:23.187Z,3.50
2022-09-29T11:29:13.789Z,3.33
2022-09-29T11:32:05.850Z,3.73
2022-09-29T11:34:37.453Z,2.60
2022-09-29T11:37:14.485Z,2.90
2022-09-29T11:40:08.117Z,3.23
2022-09-29T11:42:55.439Z,4.20
2022-09-29T11:45:48.922Z,4.17
2022-09-29T11:48:42.939Z,3.53
2022-09-29T11:51:35.579Z,3.40
2022-09-29T11:54:37.563Z,4.20
2022-09-29T11:57:32.390Z,3.10
2022-09-29T12:00:36.587Z,2.30
2022-09-29T12:03:30.892Z,2.50
2022-09-29T12:06:36.111Z,3.13
2022-09-29T12:09:15.258Z,2.97
2022-09-29T12:12:23.514Z,2.50
2022-09-29T12:15:18.288Z,2.37
2022-09-29T12:17:53.508Z,2.03
2022-09-29T12:20:29.265Z,2.20
2022-09-29T12:23:00.929Z,2.07
2022-09-29T12:25:30.940Z,1.90
2022-09-29T12:28:02.730Z,2.20
2022-09-29T12:30:36.138Z,1.70
2022-09-29T12:33:16.843Z,2.40
2022-09-29T12:36:43.511Z,1.83
2022-09-29T12:39:27.463Z,1.90
2022-09-29T12:42:22.674Z,2.20
2022-09-29T12:45:10.815Z,2.70
2022-09-29T12:47:54.988Z,2.07
2022-09-29T12:50:49.763Z,1.70
2022-09-29T12:53:32.063Z,2.10
2022-09-29T12:56:22.078Z,3.70
2022-09-29T12:58:54.272Z,1.80
2022-09-29T13:01:26.976Z,3.80
2022-09-29T13:04:15.446Z,1.90
2022-09-29T13:07:00.884Z,1.80
2022-09-29T13:09:36.715Z,1.57
2022-09-29T13:12:28.950Z,2.33
2022-09-29T13:15:32.014Z,2.03
2022-09-29T13:18:23.571Z,1.57
2022-09-29T13:21:07.958Z,1.73
2022-09-29T13:23:35.149Z,1.67
2022-09-29T13:26:17.505Z,3.23
2022-09-29T13:28:54.606Z,2.30
2022-09-29T13:31:27.974Z,1.93
2022-09-29T13:34:01.272Z,1.50
2022-09-29T13:36:35.644Z,2.17
2022-09-29T13:39:07.924Z,1.73
2022-09-29T13:41:40.291Z,1.87
2022-09-29T13:44:22.600Z,1.73
2022-09-29T13:46:49.917Z,1.70
2022-09-29T13:49:25.918Z,1.90
2022-09-29T13:51:58.919Z,1.87
2022-09-29T13:54:45.787Z,1.90
2022-09-29T13:57:12.348Z,1.90
2022-09-29T13:59:42.754Z,1.40
2022-09-29T14:02:37.807Z,2.13
2022-09-29T14:05:25.431Z,1.60
2022-09-29T14:07:54.795Z,2.30
2022-09-29T14:10:32.910Z,2.20
2022-09-29T14:13:08.136Z,2.00
2022-09-29T14:15:39.914Z,1.93
2022-09-29T14:18:35.526Z,1.83
2022-09-29T14:21:05.743Z,1.30
2022-09-29T14:23:49.817Z,1.73
2022-09-29T14:26:41.733Z,1.77
2022-09-29T14:29:16.826Z,1.63
2022-09-29T14:31:48.189Z,1.90
2022-09-29T14:34:16.701Z,1.50
2022-09-29T14:36:46.979Z,1.50
2022-09-29T14:39:26.115Z,1.93
2022-09-29T14:41:53.443Z,1.80
2022-09-29T14:44:25.042Z,1.53
2022-09-29T14:47:31.608Z,1.90
2022-09-29T14:50:44.741Z,1.40
2022-09-29T14:53:35.636Z,1.80
2022-09-29T14:56:21.462Z,1.40
2022-09-29T14:58:59.696Z,1.50
2022-09-29T15:01:28.715Z,1.97
2022-09-29T15:04:16.339Z,1.73
2022-09-29T15:06:51.260Z,1.97
2022-09-29T15:09:23.353Z,1.40
2022-09-29T15:11:56.510Z,1.30
2022-09-29T15:14:28.678Z,2.37
2022-09-29T15:17:20.771Z,2.40
2022-09-29T15:20:00.242Z,1.83
2022-09-29T15:22:38.521Z,2.27
2022-09-29T15:25:35.383Z,2.30
2022-09-29T15:28:29.184Z,3.17
2022-09-29T15:30:59.003Z,2.60
2022-09-29T15:33:29.173Z,2.40
2022-09-29T15:36:07.991Z,2.63
2022-09-29T15:38:38.164Z,2.33
2022-09-29T15:41:18.853Z,2.50
2022-09-29T15:44:27.241Z,2.97
2022-09-29T15:46:57.741Z,2.73
2022-09-29T15:49:28.856Z,2.67
2022-09-29T15:52:13.424Z,2.23
2022-09-29T15:54:44.798Z,2.83
2022-09-29T15:57:44.568Z,2.93
2022-09-29T16:00:42.305Z,2.77
2022-09-29T16:03:18.050Z,2.50
2022-09-29T16:06:00.461Z,3.00
2022-09-29T16:08:30.356Z,2.40
2022-09-29T16:11:04.297Z,2.40
2022-09-29T16:13:35.349Z,2.47
2022-09-29T16:16:04.718Z,2.70
2022-09-29T16:18:33.780Z,2.17
2022-09-29T16:21:06.551Z,2.30
2022-09-29T16:23:41.793Z,2.40
2022-09-29T16:26:08.402Z,2.30
2022-09-29T16:28:37.654Z,2.60
2022-09-29T16:31:09.958Z,2.70
2022-09-29T16:33:45.269Z,2.87
2022-09-29T16:36:20.138Z,2.40
2022-09-29T16:38:52.183Z,2.40
2022-09-29T16:41:34.230Z,3.07
2022-09-29T16:44:16.059Z,2.50
2022-09-29T16:47:03.134Z,2.43
2022-09-29T16:49:32.113Z,2.80
2022-09-29T16:52:10.915Z,3.40
2022-09-29T16:54:45.913Z,3.60
2022-09-29T16:57:30.614Z,3.00
2022-09-29T16:59:59.649Z,2.50
2022-09-29T17:02:27.572Z,2.70
2022-09-29T17:04:55.480Z,2.93
2022-09-29T17:07:27.200Z,2.73
2022-09-29T17:09:56.809Z,2.80
2022-09-29T17:12:26.639Z,3.90
2022-09-29T17:14:53.340Z,3.50
2022-09-29T17:17:22.848Z,3.73
2022-09-29T17:19:50.521Z,4.10
2022-09-29T17:22:26.496Z,4.20
2022-09-29T17:24:53.595Z,3.97
2022-09-29T17:27:39.247Z,3.70
2022-09-29T17:30:06.715Z,3.90
2022-09-29T17:32:33.301Z,4.57
2022-09-29T17:35:00.087Z,5.50
2022-09-29T17:37:26.744Z,6.33
2022-09-29T17:39:53.492Z,8.20
2022-09-29T17:42:20.359Z,9.63
2022-09-29T17:44:47.957Z,9.53
2022-09-29T17:47:35.088Z,7.40
2022-09-29T17:50:19.023Z,9.30
2022-09-29T17:52:45.612Z,8.13
2022-09-29T17:55:12.333Z,8.50
2022-09-29T17:57:39.373Z,10.57
2022-09-29T18:00:21.092Z,10.50
2022-09-29T18:02:50.236Z,9.93
2022-09-29T18:05:23.776Z,9.93
2022-09-29T18:07:51.592Z,10.67
2022-09-29T18:10:27.294Z,9.07
2022-09-29T18:12:54.109Z,9.00
2022-09-29T18:15:21.828Z,8.00
2022-09-29T18:17:48.441Z,8.50
2022-09-29T18:20:17.712Z,8.60
2022-09-29T18:22:47.002Z,7.77
2022-09-29T18:25:18.421Z,7.40
2022-09-29T18:27:46.361Z,9.07
2022-09-29T18:30:25.115Z,7.23
2022-09-29T18:32:54.785Z,7.60
2022-09-29T18:35:24.092Z,7.43
2022-09-29T18:37:51.226Z,6.90
2022-09-29T18:40:19.186Z,7.40
2022-09-29T18:42:48.280Z,7.80
2022-09-29T18:45:22.730Z,7.80
2022-09-29T18:47:58.563Z,9.20
2022-09-29T18:50:30.935Z,8.10
2022-09-29T18:52:59.270Z,5.70
2022-09-29T18:55:27.661Z,5.20
2022-09-29T18:57:56.845Z,6.53
2022-09-29T19:00:25.800Z,6.67
2022-09-29T19:02:52.887Z,6.77
2022-09-29T19:05:24.694Z,6.30
2022-09-29T19:07:55.857Z,6.90
2022-09-29T19:10:23.033Z,16.77
2022-09-29T19:12:50.723Z,10.47
2022-09-29T19:15:19.798Z,9.20
2022-09-29T19:17:48.192Z,9.60
2022-09-29T19:20:16.970Z,7.17
2022-09-29T19:22:44.699Z,10.27
2022-09-29T19:25:16.648Z,12.30
2022-09-29T19:27:44.421Z,12.53
2022-09-29T19:30:18.418Z,12.93
2022-09-29T19:32:45.221Z,11.63
2022-09-29T19:35:14.583Z,8.40
2022-09-29T19:37:42.120Z,9.03
2022-09-29T19:40:11.231Z,15.67
2022-09-29T19:42:37.825Z,19.00
2022-09-29T19:45:07.938Z,21.60
2022-09-29T19:47:35.617Z,22.87
2022-09-29T19:50:21.193Z,21.33
2022-09-29T19:52:47.823Z,22.60
2022-09-29T19:55:15.252Z,16.90
2022-09-29T19:57:42.430Z,18.17
2022-09-29T20:00:15.903Z,19.27
2022-09-29T20:02:44.638Z,16.70
2022-09-29T20:05:11.686Z,17.63
2022-09-29T20:07:40.146Z,16.53
2022-09-29T20:10:08.312Z,15.30
2022-09-29T20:12:35.508Z,12.83
2022-09-29T20:15:02.197Z,13.30
2022-09-29T20:17:28.849Z,13.90
2022-09-29T20:19:55.478Z,13.37
2022-09-29T20:22:26.657Z,13.70
2022-09-29T20:24:55.918Z,9.30
2022-09-29T20:27:22.895Z,9.57
2022-09-29T20:29:49.591Z,9.47
2022-09-29T20:32:18.840Z,9.43
2022-09-29T20:34:46.004Z,10.13
2022-09-29T20:37:13.252Z,12.27
2022-09-29T20:39:40.121Z,10.90
2022-09-29T20:42:07.189Z,11.33
2022-09-29T20:44:33.880Z,10.60
2022-09-29T20:47:00.558Z,8.70
2022-09-29T20:49:27.670Z,6.43
2022-09-29T20:51:54.458Z,6.90
2022-09-29T20:54:21.508Z,6.40
2022-09-29T20:56:50.348Z,9.70
2022-09-29T20:59:20.211Z,12.23
2022-09-29T21:01:48.536Z,14.20
2022-09-29T21:04:19.225Z,13.97
2022-09-29T21:06:49.026Z,7.30
2022-09-29T21:09:18.765Z,6.93
2022-09-29T21:11:47.018Z,6.30
2022-09-29T21:14:19.426Z,6.37
2022-09-29T21:16:50.979Z,6.97
2022-09-29T21:19:18.755Z,8.20
2022-09-29T21:21:45.510Z,7.90
2022-09-29T21:24:14.361Z,7.30
2022-09-29T21:26:41.687Z,6.20
2022-09-29T21:29:15.296Z,6.07
2022-09-29T21:31:41.930Z,6.80
2022-09-29T21:34:09.765Z,6.60
2022-09-29T21:36:37.000Z,8.20
2022-09-29T21:39:08.610Z,6.73
2022-09-29T21:41:40.964Z,6.10
2022-09-29T21:44:14.948Z,6.90
2022-09-29T21:46:42.890Z,6.70
2022-09-29T21:49:12.064Z,7.10
2022-09-29T21:51:41.806Z,7.10
2022-09-29T21:54:12.368Z,7.47
2022-09-29T21:56:41.848Z,7.10
2022-09-29T21:59:09.798Z,8.43
2022-09-29T22:01:39.739Z,7.60
2022-09-29T22:04:07.077Z,7.33
2022-09-29T22:06:35.209Z,7.50
2022-09-29T22:09:02.363Z,6.50
2022-09-29T22:11:31.431Z,6.90
2022-09-29T22:14:00.239Z,6.53
2022-09-29T22:16:29.483Z,6.23
2022-09-29T22:19:21.587Z,6.00
2022-09-29T22:21:44.697Z,6.70
2022-09-29T22:24:12.068Z,5.23
2022-09-29T22:26:40.485Z,6.23
2022-09-29T22:29:07.865Z,6.43
2022-09-29T22:31:34.766Z,5.63
2022-09-29T22:34:04.113Z,5.70
2022-09-29T22:36:33.224Z,6.53
2022-09-29T22:39:01.590Z,5.90
2022-09-29T22:41:28.916Z,6.03
2022-09-29T22:43:58.841Z,6.50
2022-09-29T22:46:27.566Z,5.37
2022-09-29T22:48:54.223Z,5.50
2022-09-29T22:51:21.141Z,5.23
2022-09-29T22:53:48.011Z,5.67
2022-09-29T22:56:17.855Z,5.53
2022-09-29T22:58:44.743Z,5.60
2022-09-29T23:01:16.279Z,5.73
2022-09-29T23:03:45.257Z,5.90
2022-09-29T23:06:12.755Z,5.67
2022-09-29T23:08:39.709Z,6.07
2022-09-29T23:11:07.785Z,6.10
2022-09-29T23:13:40.684Z,5.63
2022-09-29T23:16:12.448Z,5.23
2022-09-29T23:18:44.559Z,5.80
2022-09-29T23:21:20.420Z,5.30
2022-09-29T23:23:51.522Z,5.43
2022-09-29T23:26:18.141Z,5.10
2022-09-29T23:28:44.779Z,6.53
2022-09-29T23:31:11.978Z,5.57
2022-09-29T23:33:39.407Z,5.40
2022-09-29T23:36:10.649Z,5.93
2022-09-29T23:39:01.417Z,5.77
2022-09-29T23:41:30.359Z,6.00
2022-09-29T23:44:00.310Z,5.00
2022-09-29T23:46:31.214Z,6.10
2022-09-29T23:49:03.455Z,11.80
2022-09-29T23:51:33.625Z,6.63
2022-09-29T23:54:00.563Z,7.27
2022-09-29T23:56:27.852Z,9.50
2022-09-29T23:58:55.260Z,9.57
